createdAt,value
2019-01-14T00:00:16.169Z,97537.53
2019-01-14T00:02:09.473Z,97544.98
2019-01-14T00:04:03.176Z,97542.47
2019-01-14T00:05:56.176Z,97548.97
2019-01-14T00:07:52.057Z,97540.89
2019-01-14T00:09:45.488Z,97532.17
2019-01-14T00:11:38.540Z,97542.31
2019-01-14T00:13:31.570Z,97542.20
2019-01-14T00:15:24.929Z,97542.77
2019-01-14T00:17:17.960Z,97541.84
2019-01-14T00:19:11.600Z,97544.80
2019-01-14T00:21:06.529Z,97543.88
2019-01-14T00:22:59.528Z,97540.44
2019-01-14T00:24:52.668Z,97538.67
2019-01-14T00:26:47.326Z,97539.90
2019-01-14T00:28:41.733Z,97547.32
2019-01-14T00:30:34.577Z,97545.09
2019-01-14T00:32:27.808Z,97541.09
2019-01-14T00:34:21.326Z,97548.05
2019-01-14T00:36:17.541Z,97540.89
2019-01-14T00:38:12.038Z,97542.84
2019-01-14T00:40:06.846Z,97542.11
2019-01-14T00:41:59.566Z,97546.13
2019-01-14T00:43:52.571Z,97551.78
2019-01-14T00:45:45.242Z,97547.88
2019-01-14T00:47:38.213Z,97552.13
2019-01-14T00:49:32.031Z,97547.42
2019-01-14T00:51:26.141Z,97552.05
2019-01-14T00:53:20.526Z,97552.05
2019-01-14T00:55:14.073Z,97543.80
2019-01-14T00:57:07.370Z,97545.94
2019-01-14T00:59:00.270Z,97551.87
2019-01-14T01:00:53.236Z,97546.48
2019-01-14T01:02:46.382Z,97543.88
2019-01-14T01:04:39.540Z,97550.19
2019-01-14T01:06:32.641Z,97545.45
2019-01-14T01:08:25.567Z,97547.70
2019-01-14T01:10:19.174Z,97549.19
2019-01-14T01:12:12.215Z,97546.28
2019-01-14T01:14:05.545Z,97547.23
2019-01-14T01:15:59.211Z,97551.78
2019-01-14T01:17:52.291Z,97549.83
2019-01-14T01:19:46.058Z,97553.73
2019-01-14T01:21:38.928Z,97556.87
2019-01-14T01:23:32.052Z,97550.94
2019-01-14T01:25:25.111Z,97564.50
2019-01-14T01:27:18.140Z,97567.10
2019-01-14T01:29:13.640Z,97568.86
2019-01-14T01:31:06.990Z,97564.12
2019-01-14T01:33:01.181Z,97577.50
2019-01-14T01:34:55.672Z,97574.06
2019-01-14T01:36:48.824Z,97572.76
2019-01-14T01:38:41.842Z,97577.12
2019-01-14T01:40:35.318Z,97570.62
2019-01-14T01:42:28.886Z,97571.46
2019-01-14T01:44:21.926Z,97576.28
2019-01-14T01:46:15.224Z,97575.08
2019-01-14T01:48:08.419Z,97584.19
2019-01-14T01:50:01.824Z,97583.80
2019-01-14T01:51:54.768Z,97581.58
2019-01-14T01:53:48.148Z,97583.23
2019-01-14T01:55:41.669Z,97584.99
2019-01-14T01:57:34.678Z,97585.83
2019-01-14T01:59:27.438Z,97596.23
2019-01-14T02:01:20.798Z,97592.90
2019-01-14T02:03:13.959Z,97593.28
2019-01-14T02:05:09.078Z,97583.69
2019-01-14T02:07:03.077Z,97597.45
2019-01-14T02:08:55.705Z,97601.63
2019-01-14T02:10:48.622Z,97599.41
2019-01-14T02:12:41.698Z,97600.71
2019-01-14T02:14:34.913Z,97609.05
2019-01-14T02:16:28.119Z,97614.17
2019-01-14T02:18:20.850Z,97611.57
2019-01-14T02:20:16.267Z,97615.85
2019-01-14T02:22:09.788Z,97614.06
2019-01-14T02:24:02.776Z,97627.45
2019-01-14T02:25:56.736Z,97625.69
2019-01-14T02:27:49.685Z,97622.25
2019-01-14T02:29:42.806Z,97626.98
2019-01-14T02:31:35.739Z,97633.02
2019-01-14T02:33:29.555Z,97627.45
2019-01-14T02:35:22.700Z,97630.05
2019-01-14T02:37:16.131Z,97640.44
2019-01-14T02:39:10.064Z,97637.11
2019-01-14T02:41:03.571Z,97639.60
2019-01-14T02:42:57.330Z,97648.81
2019-01-14T02:44:50.475Z,97648.42
2019-01-14T02:46:44.326Z,97656.61
2019-01-14T02:48:37.894Z,97650.45
2019-01-14T02:50:32.884Z,97648.25
2019-01-14T02:52:26.445Z,97657.80
2019-01-14T02:54:20.206Z,97648.81
2019-01-14T02:56:14.285Z,97660.86
2019-01-14T02:58:07.483Z,97659.95
2019-01-14T03:00:01.605Z,97661.63
2019-01-14T03:01:55.568Z,97664.30
2019-01-14T03:03:49.283Z,97660.86
2019-01-14T03:05:43.222Z,97667.36
2019-01-14T03:07:36.504Z,97669.78
2019-01-14T03:09:29.780Z,97674.27
2019-01-14T03:11:23.384Z,97675.10
2019-01-14T03:13:16.929Z,97679.00
2019-01-14T03:15:10.686Z,97684.09
2019-01-14T03:17:04.367Z,97680.77
2019-01-14T03:18:57.811Z,97687.27
2019-01-14T03:20:51.534Z,97684.28
2019-01-14T03:22:45.093Z,97679.64
2019-01-14T03:24:39.217Z,97695.62
2019-01-14T03:26:33.221Z,97687.54
2019-01-14T03:28:26.333Z,97692.56
2019-01-14T03:30:21.305Z,97701.31
2019-01-14T03:32:14.686Z,97698.60
2019-01-14T03:34:07.655Z,97703.06
2019-01-14T03:36:01.016Z,97704.83
2019-01-14T03:37:54.160Z,97710.03
2019-01-14T03:39:47.292Z,97709.75
2019-01-14T03:41:40.034Z,97720.33
2019-01-14T03:43:34.426Z,97718.27
2019-01-14T03:45:28.190Z,97713.24
2019-01-14T03:47:21.127Z,97722.98
2019-01-14T03:49:14.240Z,97726.77
2019-01-14T03:51:07.173Z,97726.31
2019-01-14T03:53:00.142Z,97730.01
2019-01-14T03:54:53.158Z,97733.45
2019-01-14T03:56:46.128Z,97737.87
2019-01-14T03:58:39.124Z,97743.56
2019-01-14T04:00:32.277Z,97741.60
2019-01-14T04:02:25.426Z,97734.57
2019-01-14T04:04:18.805Z,97745.36
2019-01-14T04:06:11.821Z,97755.65
2019-01-14T04:08:04.855Z,97757.41
2019-01-14T04:09:57.795Z,97760.84
2019-01-14T04:11:51.069Z,97757.05
2019-01-14T04:13:45.039Z,97753.79
2019-01-14T04:15:37.958Z,97762.11
2019-01-14T04:17:31.033Z,97779.19
2019-01-14T04:19:24.704Z,97762.67
2019-01-14T04:21:17.725Z,97776.13
2019-01-14T04:23:10.641Z,97766.12
2019-01-14T04:25:03.726Z,97768.79
2019-01-14T04:26:56.655Z,97778.80
2019-01-14T04:28:49.605Z,97774.76
2019-01-14T04:30:42.312Z,97773.28
2019-01-14T04:32:35.295Z,97777.08
2019-01-14T04:34:29.120Z,97787.09
2019-01-14T04:36:23.399Z,97793.52
2019-01-14T04:38:17.078Z,97795.38
2019-01-14T04:40:11.081Z,97803.64
2019-01-14T04:42:04.636Z,97803.98
2019-01-14T04:43:57.970Z,97808.86
2019-01-14T04:45:51.339Z,97808.58
2019-01-14T04:47:50.556Z,97813.95
2019-01-14T04:49:45.332Z,97812.36
2019-01-14T04:51:40.184Z,97823.77
2019-01-14T04:53:34.442Z,97824.30
2019-01-14T04:55:27.742Z,97827.34
2019-01-14T04:57:21.498Z,97841.28
2019-01-14T04:59:14.441Z,97842.27
2019-01-14T05:01:09.083Z,97838.38
2019-01-14T05:03:04.509Z,97853.22
2019-01-14T05:04:57.647Z,97853.39
2019-01-14T05:06:50.947Z,97853.77
2019-01-14T05:08:44.009Z,97866.16
2019-01-14T05:10:36.874Z,97859.08
2019-01-14T05:12:30.334Z,97870.26
2019-01-14T05:14:23.337Z,97880.42
2019-01-14T05:16:16.339Z,97886.78
2019-01-14T05:18:09.367Z,97889.71
2019-01-14T05:20:02.700Z,97900.94
2019-01-14T05:21:55.700Z,97913.00
2019-01-14T05:23:48.541Z,97936.09
2019-01-14T05:25:41.490Z,97922.73
2019-01-14T05:27:34.166Z,97920.52
2019-01-14T05:29:32.632Z,97926.01
2019-01-14T05:31:28.340Z,97937.45
2019-01-14T05:33:21.282Z,97957.81
2019-01-14T05:35:14.165Z,97954.52
2019-01-14T05:37:07.390Z,97970.53
2019-01-14T05:39:00.165Z,97982.09
2019-01-14T05:40:53.159Z,97994.42
2019-01-14T05:42:45.945Z,98000.73
2019-01-14T05:44:38.919Z,97998.34
2019-01-14T05:46:31.938Z,98009.91
2019-01-14T05:48:24.910Z,98034.89
2019-01-14T05:50:17.924Z,98026.02
2019-01-14T05:52:10.808Z,98036.08
2019-01-14T05:54:03.880Z,98066.06
2019-01-14T05:55:56.760Z,98054.35
2019-01-14T05:57:50.274Z,98065.44
2019-01-14T05:59:43.467Z,98073.04
2019-01-14T06:01:36.385Z,98081.70
2019-01-14T06:03:29.517Z,98093.50
2019-01-14T06:05:23.532Z,98086.23
2019-01-14T06:07:17.402Z,98114.41
2019-01-14T06:09:11.152Z,98116.88
2019-01-14T06:11:03.939Z,98134.11
2019-01-14T06:12:57.377Z,98131.25
2019-01-14T06:14:50.237Z,98143.61
2019-01-14T06:16:43.583Z,98144.76
2019-01-14T06:18:36.427Z,98161.40
2019-01-14T06:20:30.326Z,98166.43
2019-01-14T06:22:23.046Z,98178.45
2019-01-14T06:24:16.306Z,98176.68
2019-01-14T06:26:10.267Z,98181.70
2019-01-14T06:28:03.376Z,98185.38
2019-01-14T06:29:56.243Z,98195.56
2019-01-14T06:31:49.117Z,98190.72
2019-01-14T06:33:42.294Z,98210.81
2019-01-14T06:35:35.276Z,98210.59
2019-01-14T06:37:28.606Z,98216.66
2019-01-14T06:39:23.686Z,98238.53
2019-01-14T06:41:16.837Z,98235.02
2019-01-14T06:43:09.683Z,98241.06
2019-01-14T06:45:02.876Z,98238.76
2019-01-14T06:46:55.703Z,98244.66
2019-01-14T06:48:48.476Z,98246.48
2019-01-14T06:50:41.552Z,98251.77
2019-01-14T06:52:34.250Z,98256.10
2019-01-14T06:54:27.236Z,98252.66
2019-01-14T06:56:20.239Z,98253.55
2019-01-14T06:58:13.335Z,98258.00
2019-01-14T07:00:08.158Z,98259.48
2019-01-14T07:02:00.948Z,98276.05
2019-01-14T07:03:55.263Z,98283.48
2019-01-14T07:05:48.560Z,98280.50
2019-01-14T07:07:41.911Z,98279.20
2019-01-14T07:09:35.017Z,98297.42
2019-01-14T07:11:28.134Z,98300.64
2019-01-14T07:13:21.470Z,98291.30
2019-01-14T07:15:14.396Z,98302.71
2019-01-14T07:17:07.145Z,98312.83
2019-01-14T07:19:00.227Z,98305.66
2019-01-14T07:20:53.486Z,98312.28
2019-01-14T07:22:46.819Z,98321.84
2019-01-14T07:24:40.886Z,98316.78
2019-01-14T07:26:33.570Z,98321.50
2019-01-14T07:28:26.328Z,98323.87
2019-01-14T07:30:21.409Z,98324.17
2019-01-14T07:32:14.470Z,98330.87
2019-01-14T07:34:08.907Z,98328.02
2019-01-14T07:36:02.038Z,98333.46
2019-01-14T07:37:56.479Z,98338.05
2019-01-14T07:39:49.340Z,98337.41
2019-01-14T07:41:42.385Z,98339.11
2019-01-14T07:43:35.249Z,98339.96
2019-01-14T07:45:28.308Z,98342.95
2019-01-14T07:47:21.639Z,98348.61
2019-01-14T07:49:14.762Z,98355.27
2019-01-14T07:51:09.239Z,98355.70
2019-01-14T07:53:02.367Z,98360.03
2019-01-14T07:54:55.346Z,98368.31
2019-01-14T07:56:48.689Z,98367.83
2019-01-14T07:58:42.362Z,98381.14
2019-01-14T08:00:35.329Z,98373.30
2019-01-14T08:02:28.580Z,98385.75
2019-01-14T08:04:21.521Z,98399.58
2019-01-14T08:06:14.128Z,98405.16
2019-01-14T08:08:13.812Z,98407.57
2019-01-14T08:10:01.914Z,98412.05
2019-01-14T08:11:55.871Z,98413.80
2019-01-14T08:13:48.669Z,98416.64
2019-01-14T08:15:42.090Z,98417.38
2019-01-14T08:17:35.244Z,98430.70
2019-01-14T08:19:29.913Z,98431.32
2019-01-14T08:21:24.394Z,98441.97
2019-01-14T08:23:17.447Z,98440.67
2019-01-14T08:25:11.860Z,98441.23
2019-01-14T08:27:04.676Z,98441.71
2019-01-14T08:28:57.344Z,98449.66
2019-01-14T08:30:50.332Z,98451.95
2019-01-14T08:32:43.258Z,98450.80
2019-01-14T08:34:36.252Z,98461.02
2019-01-14T08:36:28.979Z,98473.80
2019-01-14T08:38:22.207Z,98483.50
2019-01-14T08:40:16.096Z,98465.12
2019-01-14T08:42:27.541Z,98471.69
2019-01-14T08:44:23.058Z,98480.47
2019-01-14T08:46:15.633Z,98464.58
2019-01-14T08:48:08.172Z,98488.20
2019-01-14T08:50:01.030Z,98475.91
2019-01-14T08:51:53.424Z,98480.03
2019-01-14T08:53:46.993Z,98497.15
2019-01-14T08:55:39.585Z,98490.98
2019-01-14T08:57:32.107Z,98503.31
2019-01-14T08:59:24.562Z,98500.79
2019-01-14T09:01:17.076Z,98502.13
2019-01-14T09:03:09.701Z,98520.78
2019-01-14T09:05:02.147Z,98510.50
2019-01-14T09:06:54.631Z,98515.77
2019-01-14T09:08:47.181Z,98510.59
2019-01-14T09:10:39.751Z,98515.77
2019-01-14T09:12:32.192Z,98530.81
2019-01-14T09:14:24.852Z,98530.81
2019-01-14T09:16:17.362Z,98545.55
2019-01-14T09:18:10.598Z,98543.72
2019-01-14T09:20:03.700Z,98531.23
2019-01-14T09:21:56.303Z,98536.81
2019-01-14T09:23:50.019Z,98532.48
2019-01-14T09:25:42.583Z,98540.39
2019-01-14T09:27:35.393Z,98531.13
2019-01-14T09:29:29.085Z,98550.74
2019-01-14T09:31:23.175Z,98548.19
2019-01-14T09:33:16.024Z,98540.42
2019-01-14T09:35:08.780Z,98563.00
2019-01-14T09:37:01.512Z,98553.53
2019-01-14T09:38:54.144Z,98558.61
2019-01-14T09:40:46.752Z,98539.30
2019-01-14T09:42:39.839Z,98552.68
2019-01-14T09:44:32.482Z,98557.45
2019-01-14T09:46:26.158Z,98556.05
2019-01-14T09:48:18.736Z,98575.94
2019-01-14T09:50:13.299Z,98557.72
2019-01-14T09:52:05.768Z,98577.38
2019-01-14T09:53:58.286Z,98554.38
2019-01-14T09:55:50.795Z,98573.52
2019-01-14T09:57:43.387Z,98568.20
2019-01-14T09:59:35.929Z,98573.72
2019-01-14T10:01:28.457Z,98567.11
2019-01-14T10:03:21.050Z,98564.93
2019-01-14T10:05:15.088Z,98570.38
2019-01-14T10:07:07.693Z,98565.50
2019-01-14T10:09:00.728Z,98576.19
2019-01-14T10:10:54.973Z,98569.68
2019-01-14T10:12:47.574Z,98565.69
2019-01-14T10:14:40.096Z,98563.51
2019-01-14T10:16:32.723Z,98568.69
2019-01-14T10:18:26.412Z,98569.91
2019-01-14T10:20:19.218Z,98577.47
2019-01-14T10:22:12.077Z,98575.50
2019-01-14T10:24:04.740Z,98581.64
2019-01-14T10:25:57.444Z,98576.91
2019-01-14T10:27:50.050Z,98578.88
2019-01-14T10:29:42.578Z,98577.88
2019-01-14T10:31:35.430Z,98579.70
2019-01-14T10:33:28.046Z,98580.78
2019-01-14T10:35:21.722Z,98585.73
2019-01-14T10:37:14.311Z,98580.55
2019-01-14T10:39:09.291Z,98580.92
2019-01-14T10:41:02.032Z,98590.37
2019-01-14T10:42:54.753Z,98585.52
2019-01-14T10:44:47.357Z,98579.80
2019-01-14T10:46:40.123Z,98594.56
2019-01-14T10:48:32.868Z,98593.97
2019-01-14T10:50:25.708Z,98586.20
2019-01-14T10:52:18.408Z,98591.27
2019-01-14T10:54:11.084Z,98585.45
2019-01-14T10:56:03.734Z,98588.55
2019-01-14T10:57:56.242Z,98590.73
2019-01-14T10:59:48.953Z,98595.33
2019-01-14T11:01:41.575Z,98599.79
2019-01-14T11:03:34.191Z,98593.95
2019-01-14T11:05:30.006Z,98596.23
2019-01-14T11:07:22.592Z,98595.56
2019-01-14T11:09:15.140Z,98598.73
2019-01-14T11:11:07.675Z,98598.28
2019-01-14T11:13:00.743Z,98612.73
2019-01-14T11:14:53.152Z,98610.69
2019-01-14T11:16:45.720Z,98600.05
2019-01-14T11:18:40.473Z,98598.41
2019-01-14T11:20:34.002Z,98601.59
2019-01-14T11:22:26.663Z,98603.45
2019-01-14T11:24:19.282Z,98610.22
2019-01-14T11:26:14.532Z,98626.01
2019-01-14T11:28:07.243Z,98613.00
2019-01-14T11:29:59.841Z,98617.50
2019-01-14T11:31:52.509Z,98626.16
2019-01-14T11:33:45.208Z,98619.68
2019-01-14T11:35:38.731Z,98619.68
2019-01-14T11:37:31.444Z,98629.83
2019-01-14T11:39:24.124Z,98631.67
2019-01-14T11:41:17.477Z,98626.70
2019-01-14T11:43:10.160Z,98635.41
2019-01-14T11:45:02.763Z,98634.25
2019-01-14T11:46:55.533Z,98640.67
2019-01-14T11:48:48.227Z,98641.50
2019-01-14T11:50:40.991Z,98650.75
2019-01-14T11:52:33.725Z,98653.87
2019-01-14T11:54:26.346Z,98667.25
2019-01-14T11:56:19.024Z,98665.52
2019-01-14T11:58:11.520Z,98668.42
2019-01-14T12:00:04.250Z,98670.38
2019-01-14T12:01:56.956Z,98675.20
2019-01-14T12:03:49.662Z,98673.17
2019-01-14T12:05:42.322Z,98665.28
2019-01-14T12:07:34.913Z,98662.84
2019-01-14T12:09:27.580Z,98662.59
2019-01-14T12:11:20.264Z,98672.16
2019-01-14T12:13:12.935Z,98676.92
2019-01-14T12:15:07.952Z,98677.05
2019-01-14T12:17:00.984Z,98661.28
2019-01-14T12:18:53.680Z,98692.02
2019-01-14T12:20:46.764Z,98682.68
2019-01-14T12:22:39.463Z,98699.22
2019-01-14T12:24:31.992Z,98701.49
2019-01-14T12:26:24.728Z,98702.91
2019-01-14T12:28:17.243Z,98707.07
2019-01-14T12:30:24.832Z,98707.16
2019-01-14T12:32:19.263Z,98715.36
2019-01-14T12:34:11.808Z,98712.84
2019-01-14T12:36:05.590Z,98729.78
2019-01-14T12:37:58.226Z,98727.72
2019-01-14T12:39:50.740Z,98728.78
2019-01-14T12:41:43.596Z,98730.69
2019-01-14T12:43:36.337Z,98735.48
2019-01-14T12:45:29.038Z,98752.77
2019-01-14T12:47:21.416Z,98738.19
2019-01-14T12:49:14.708Z,98737.42
2019-01-14T12:51:09.397Z,98743.55
2019-01-14T12:53:02.000Z,98737.59
2019-01-14T12:54:55.947Z,98742.52
2019-01-14T12:56:48.678Z,98741.39
2019-01-14T12:58:41.196Z,98751.05
2019-01-14T13:00:33.977Z,98760.62
2019-01-14T13:02:26.548Z,98765.38
2019-01-14T13:04:20.107Z,98763.27
2019-01-14T13:06:12.478Z,98757.18
2019-01-14T13:08:05.089Z,98770.16
2019-01-14T13:09:57.624Z,98772.77
2019-01-14T13:11:50.268Z,98775.00
2019-01-14T13:13:44.069Z,98782.75
2019-01-14T13:15:36.718Z,98781.45
2019-01-14T13:17:29.108Z,98786.22
2019-01-14T13:19:21.472Z,98791.38
2019-01-14T13:21:14.021Z,98797.82
2019-01-14T13:23:06.512Z,98799.13
2019-01-14T13:24:59.154Z,98804.36
2019-01-14T13:26:51.738Z,98811.70
2019-01-14T13:28:44.437Z,98812.70
2019-01-14T13:30:43.671Z,98824.41
2019-01-14T13:32:38.123Z,98816.69
2019-01-14T13:34:30.779Z,98825.80
2019-01-14T13:36:23.364Z,98832.16
2019-01-14T13:38:15.810Z,98833.64
2019-01-14T13:40:10.102Z,98837.67
2019-01-14T13:42:02.746Z,98829.66
2019-01-14T13:43:55.515Z,98831.78
2019-01-14T13:45:52.424Z,98840.59
2019-01-14T13:47:42.697Z,98837.39
2019-01-14T13:49:35.306Z,98842.46
2019-01-14T13:51:27.914Z,98857.73
2019-01-14T13:53:20.370Z,98861.00
2019-01-14T13:55:13.067Z,98858.11
2019-01-14T13:57:05.842Z,98869.48
2019-01-14T13:58:58.359Z,98883.73
2019-01-14T14:00:51.083Z,98871.58
2019-01-14T14:02:43.768Z,98867.16
2019-01-14T14:04:36.445Z,98869.59
2019-01-14T14:06:29.193Z,98872.28
2019-01-14T14:08:21.959Z,98878.72
2019-01-14T14:10:19.034Z,98880.88
2019-01-14T14:12:11.543Z,98889.55
2019-01-14T14:14:04.152Z,98910.30
2019-01-14T14:15:56.700Z,98914.61
2019-01-14T14:17:49.182Z,98917.30
2019-01-14T14:19:41.779Z,98926.52
2019-01-14T14:21:35.063Z,98923.39
2019-01-14T14:23:28.057Z,98926.19
2019-01-14T14:25:20.759Z,98922.02
2019-01-14T14:27:13.386Z,98932.84
2019-01-14T14:29:05.995Z,98923.45
2019-01-14T14:30:58.750Z,98916.14
2019-01-14T14:32:51.458Z,98939.04
2019-01-14T14:34:44.319Z,98940.78
2019-01-14T14:36:36.971Z,98974.55
2019-01-14T14:38:29.403Z,98930.45
2019-01-14T14:40:22.021Z,98946.53
2019-01-14T14:42:14.563Z,98953.46
2019-01-14T14:44:07.171Z,98963.78
2019-01-14T14:45:59.931Z,98973.23
2019-01-14T14:47:52.482Z,98975.02
2019-01-14T14:49:45.058Z,98985.88
2019-01-14T14:51:37.848Z,98999.26
2019-01-14T14:53:30.678Z,98985.22
2019-01-14T14:55:23.170Z,98999.94
2019-01-14T14:57:15.884Z,98985.05
2019-01-14T14:59:08.572Z,99002.72
2019-01-14T15:01:02.329Z,98996.27
2019-01-14T15:02:54.802Z,99005.78
2019-01-14T15:04:47.381Z,99003.67
2019-01-14T15:06:40.189Z,99015.22
2019-01-14T15:08:32.913Z,99018.72
2019-01-14T15:10:25.712Z,99014.03
2019-01-14T15:12:18.363Z,99027.30
2019-01-14T15:14:11.092Z,99042.28
2019-01-14T15:16:05.595Z,99044.09
2019-01-14T15:17:58.401Z,99044.09
2019-01-14T15:19:52.333Z,99054.83
2019-01-14T15:21:44.993Z,99054.84
2019-01-14T15:23:37.659Z,99064.33
2019-01-14T15:25:30.326Z,99066.22
2019-01-14T15:27:22.836Z,99070.63
2019-01-14T15:29:15.356Z,99076.30
2019-01-14T15:31:08.064Z,99079.42
2019-01-14T15:33:00.719Z,99082.47
2019-01-14T15:34:53.281Z,99091.08
2019-01-14T15:36:45.846Z,99100.52
2019-01-14T15:38:38.477Z,99097.02
2019-01-14T15:40:31.032Z,99104.70
2019-01-14T15:42:24.131Z,99108.56
2019-01-14T15:44:16.811Z,99120.12
2019-01-14T15:46:09.574Z,99115.00
2019-01-14T15:48:02.361Z,99118.91
2019-01-14T15:49:54.944Z,99121.05
2019-01-14T15:51:47.763Z,99121.09
2019-01-14T15:53:40.392Z,99121.16
2019-01-14T15:55:33.555Z,99122.45
2019-01-14T15:57:26.303Z,99132.34
2019-01-14T15:59:19.072Z,99130.59
2019-01-14T16:01:12.955Z,99139.22
2019-01-14T16:03:05.902Z,99143.97
2019-01-14T16:04:58.634Z,99152.95
2019-01-14T16:06:51.433Z,99149.94
2019-01-14T16:08:44.432Z,99158.03
2019-01-14T16:10:37.572Z,99156.64
2019-01-14T16:12:31.075Z,99162.19
2019-01-14T16:14:26.174Z,99162.19
2019-01-14T16:16:19.470Z,99163.87
2019-01-14T16:18:13.063Z,99174.95
2019-01-14T16:20:07.401Z,99169.80
2019-01-14T16:22:00.893Z,99177.53
2019-01-14T16:23:54.243Z,99179.29
2019-01-14T16:25:48.653Z,99186.22
2019-01-14T16:27:42.164Z,99187.05
2019-01-14T16:29:35.470Z,99192.23
2019-01-14T16:31:28.794Z,99200.39
2019-01-14T16:33:22.085Z,99203.39
2019-01-14T16:35:15.383Z,99207.69
2019-01-14T16:37:08.702Z,99207.29
2019-01-14T16:39:02.081Z,99213.33
2019-01-14T16:40:55.424Z,99212.91
2019-01-14T16:42:48.784Z,99215.41
2019-01-14T16:44:42.180Z,99215.84
2019-01-14T16:46:35.463Z,99220.56
2019-01-14T16:48:28.823Z,99218.84
2019-01-14T16:50:22.483Z,99219.73
2019-01-14T16:52:15.923Z,99219.77
2019-01-14T16:54:09.101Z,99225.38
2019-01-14T16:56:17.336Z,99230.50
2019-01-14T16:58:11.907Z,99228.41
2019-01-14T17:00:05.678Z,99221.11
2019-01-14T17:01:59.210Z,99230.10
2019-01-14T17:03:52.613Z,99226.27
2019-01-14T17:05:45.923Z,99232.27
2019-01-14T17:07:39.918Z,99229.24
2019-01-14T17:09:33.231Z,99231.81
2019-01-14T17:11:26.421Z,99229.67
2019-01-14T17:13:19.955Z,99230.53
2019-01-14T17:15:13.450Z,99236.51
2019-01-14T17:17:07.721Z,99237.80
2019-01-14T17:19:01.186Z,99242.92
2019-01-14T17:20:54.444Z,99242.88
2019-01-14T17:22:47.828Z,99242.00
2019-01-14T17:24:41.200Z,99243.71
2019-01-14T17:26:34.567Z,99248.47
2019-01-14T17:28:28.358Z,99250.22
2019-01-14T17:30:22.748Z,99254.41
2019-01-14T17:32:17.081Z,99259.17
2019-01-14T17:34:12.438Z,99260.91
2019-01-14T17:36:06.267Z,99265.98
2019-01-14T17:37:59.650Z,99271.98
2019-01-14T17:39:52.939Z,99273.73
2019-01-14T17:41:47.506Z,99274.19
2019-01-14T17:43:41.137Z,99273.70
2019-01-14T17:45:34.740Z,99279.71
2019-01-14T17:47:28.123Z,99275.88
2019-01-14T17:49:21.490Z,99276.73
2019-01-14T17:51:15.348Z,99275.42
2019-01-14T17:53:08.698Z,99280.11
2019-01-14T17:55:02.118Z,99285.66
2019-01-14T17:56:55.791Z,99293.85
2019-01-14T17:58:49.967Z,99287.41
2019-01-14T18:00:43.378Z,99289.16
2019-01-14T18:02:36.710Z,99293.91
2019-01-14T18:04:30.174Z,99296.52
2019-01-14T18:06:23.689Z,99305.10
2019-01-14T18:08:17.030Z,99299.09
2019-01-14T18:10:12.718Z,99308.51
2019-01-14T18:12:06.540Z,99309.30
2019-01-14T18:13:59.798Z,99308.85
2019-01-14T18:15:53.301Z,99303.23
2019-01-14T18:17:47.150Z,99304.50
2019-01-14T18:19:40.410Z,99307.91
2019-01-14T18:21:34.199Z,99309.16
2019-01-14T18:23:27.501Z,99317.26
2019-01-14T18:25:21.270Z,99315.94
2019-01-14T18:27:14.664Z,99313.36
2019-01-14T18:29:07.911Z,99313.79
2019-01-14T18:31:01.250Z,99322.41
2019-01-14T18:33:02.401Z,99326.28
2019-01-14T18:34:55.805Z,99330.17
2019-01-14T18:36:57.165Z,99334.04
2019-01-14T18:38:50.494Z,99339.16
2019-01-14T18:40:47.223Z,99332.66
2019-01-14T18:42:39.419Z,99333.48
2019-01-14T18:44:32.894Z,99342.41
2019-01-14T18:46:26.471Z,99341.55
2019-01-14T18:48:19.818Z,99348.79
2019-01-14T18:50:16.910Z,99352.66
2019-01-14T18:52:10.330Z,99348.33
2019-01-14T18:54:04.111Z,99350.05
2019-01-14T18:55:57.822Z,99351.77
2019-01-14T18:57:52.380Z,99343.56
2019-01-14T18:59:45.918Z,99353.02
2019-01-14T19:01:39.341Z,99354.28
2019-01-14T19:03:34.468Z,99351.23
2019-01-14T19:05:28.000Z,99345.14
2019-01-14T19:07:21.498Z,99345.54
2019-01-14T19:09:14.861Z,99348.52
2019-01-14T19:11:08.530Z,99350.23
2019-01-14T19:13:01.941Z,99351.95
2019-01-14T19:14:55.311Z,99353.67
2019-01-14T19:16:50.270Z,99355.82
2019-01-14T19:18:44.440Z,99358.44
2019-01-14T19:20:38.015Z,99360.55
2019-01-14T19:22:31.348Z,99365.70
2019-01-14T19:24:24.930Z,99367.42
2019-01-14T19:26:21.135Z,99362.66
2019-01-14T19:28:14.681Z,99354.50
2019-01-14T19:30:10.920Z,99357.11
2019-01-14T19:35:12.806Z,99346.36
2019-01-14T19:37:12.522Z,99355.86
2019-01-14T19:39:08.261Z,99353.78
2019-01-14T19:41:02.203Z,99354.17
2019-01-14T19:42:55.808Z,99362.27
2019-01-14T19:44:49.720Z,99356.64
2019-01-14T19:46:43.329Z,99370.76
2019-01-14T19:48:38.275Z,99348.33
2019-01-14T19:50:31.791Z,99364.59
2019-01-14T19:52:25.921Z,99371.86
2019-01-14T19:54:19.540Z,99373.97
2019-01-14T19:56:13.038Z,99362.28
2019-01-14T19:58:07.156Z,99369.16
2019-01-14T20:00:00.632Z,99389.84
2019-01-14T20:01:54.270Z,99395.95
2019-01-14T20:03:47.820Z,99385.27
2019-01-14T20:05:41.380Z,99384.02
2019-01-14T20:07:34.917Z,99376.66
2019-01-14T20:09:28.891Z,99377.95
2019-01-14T20:11:22.348Z,99380.11
2019-01-14T20:13:23.056Z,99378.81
2019-01-14T20:15:19.788Z,99385.27
2019-01-14T20:17:13.331Z,99393.05
2019-01-14T20:19:10.395Z,99383.23
2019-01-14T20:21:04.272Z,99372.48
2019-01-14T20:22:58.561Z,99365.53
2019-01-14T20:24:53.250Z,99377.10
2019-01-14T20:26:47.768Z,99379.28
2019-01-14T20:28:44.142Z,99382.33
2019-01-14T20:30:37.631Z,99363.41
2019-01-14T20:32:31.233Z,99383.23
2019-01-14T20:34:24.798Z,99386.67
2019-01-14T20:36:18.230Z,99378.11
2019-01-14T20:38:13.120Z,99379.43
2019-01-14T20:40:07.540Z,99373.38
2019-01-14T20:42:00.951Z,99394.44
2019-01-14T20:43:54.808Z,99392.29
2019-01-14T20:45:48.479Z,99388.85
2019-01-14T20:47:42.041Z,99390.50
2019-01-14T20:49:35.948Z,99391.79
2019-01-14T20:51:29.859Z,99399.96
2019-01-14T20:53:23.779Z,99388.75
2019-01-14T20:55:18.772Z,99397.27
2019-01-14T20:57:12.300Z,99419.63
2019-01-14T20:59:06.671Z,99398.95
2019-01-14T21:01:00.371Z,99408.02
2019-01-14T21:02:54.108Z,99406.70
2019-01-14T21:04:47.729Z,99412.64
2019-01-14T21:06:41.143Z,99408.30
2019-01-14T21:08:34.451Z,99412.17
2019-01-14T21:10:27.996Z,99414.33
2019-01-14T21:12:22.260Z,99397.98
2019-01-14T21:14:15.569Z,99418.63
2019-01-14T21:16:10.339Z,99417.77
2019-01-14T21:18:03.711Z,99416.05
2019-01-14T21:20:00.031Z,99415.58
2019-01-14T21:21:53.420Z,99425.52
2019-01-14T21:23:46.851Z,99428.48
2019-01-14T21:25:40.208Z,99440.14
2019-01-14T21:27:33.498Z,99438.02
2019-01-14T21:29:26.750Z,99441.89
2019-01-14T21:31:20.253Z,99446.55
2019-01-14T21:33:13.621Z,99447.88
2019-01-14T21:35:07.561Z,99456.95
2019-01-14T21:37:00.837Z,99448.81
2019-01-14T21:38:54.111Z,99449.67
2019-01-14T21:40:47.541Z,99457.84
2019-01-14T21:42:40.771Z,99454.44
2019-01-14T21:44:34.031Z,99458.73
2019-01-14T21:46:27.740Z,99473.75
2019-01-14T21:48:23.386Z,99472.53
2019-01-14T21:50:20.340Z,99468.59
2019-01-14T21:52:13.421Z,99476.38
2019-01-14T21:54:06.680Z,99468.98
2019-01-14T21:55:59.521Z,99474.25
2019-01-14T21:57:52.823Z,99483.75
2019-01-14T21:59:46.921Z,99476.90
2019-01-14T22:01:39.983Z,99482.00
2019-01-14T22:03:32.908Z,99472.07
2019-01-14T22:05:26.678Z,99472.93
2019-01-14T22:07:19.821Z,99480.27
2019-01-14T22:09:13.519Z,99485.80
2019-01-14T22:11:12.491Z,99480.64
2019-01-14T22:13:06.348Z,99475.05
2019-01-14T22:14:59.179Z,99477.59